createdAt,value
2023-03-18T00:01:51.013Z,95900.47
2023-03-18T00:04:19.343Z,95892.25
2023-03-18T00:06:48.987Z,95898.66
2023-03-18T00:09:17.698Z,95894.31
2023-03-18T00:11:47.126Z,95891.84
2023-03-18T00:14:16.153Z,95893.13
2023-03-18T00:16:44.530Z,95904.00
2023-03-18T00:19:13.123Z,95905.34
2023-03-18T00:21:41.475Z,95912.75
2023-03-18T00:24:11.934Z,95912.75
2023-03-18T00:26:40.391Z,95919.03
2023-03-18T00:29:08.971Z,95919.16
2023-03-18T00:31:38.262Z,95915.06
2023-03-18T00:34:08.025Z,95925.56
2023-03-18T00:36:36.516Z,95921.59
2023-03-18T00:39:04.863Z,95926.69
2023-03-18T00:41:36.426Z,95924.41
2023-03-18T00:44:06.334Z,95923.59
2023-03-18T00:46:37.008Z,95925.25
2023-03-18T00:49:06.842Z,95929.66
2023-03-18T00:51:37.582Z,95935.06
2023-03-18T00:54:08.082Z,95933.22
2023-03-18T00:56:38.663Z,95930.72
2023-03-18T00:59:07.176Z,95932.25
2023-03-18T01:01:35.784Z,95937.38
2023-03-18T01:04:04.437Z,95932.09
2023-03-18T01:06:35.867Z,95929.28
2023-03-18T01:09:05.768Z,95932.09
2023-03-18T01:11:34.362Z,95937.91
2023-03-18T01:14:04.676Z,95938.25
2023-03-18T01:16:33.063Z,95934.22
2023-03-18T01:19:01.400Z,95931.91
2023-03-18T01:21:29.797Z,95930.25
2023-03-18T01:24:00.408Z,95933.56
2023-03-18T01:26:28.498Z,95928.13
2023-03-18T01:28:57.036Z,95926.84
2023-03-18T01:31:27.003Z,95930.25
2023-03-18T01:33:56.115Z,95925.94
2023-03-18T01:36:25.151Z,95934.06
2023-03-18T01:38:53.465Z,95927.63
2023-03-18T01:41:21.783Z,95940.56
2023-03-18T01:43:50.090Z,95933.28
2023-03-18T01:46:35.953Z,95934.56
2023-03-18T01:49:07.624Z,95937.13
2023-03-18T01:51:37.731Z,95947.88
2023-03-18T01:54:07.985Z,95943.91
2023-03-18T01:56:38.418Z,95944.38
2023-03-18T01:59:07.968Z,95952.56
2023-03-18T02:01:48.894Z,95954.50
2023-03-18T02:04:18.082Z,95951.41
2023-03-18T02:06:46.465Z,95950.16
2023-03-18T02:09:14.991Z,95952.78
2023-03-18T02:11:46.438Z,95954.03
2023-03-18T02:14:16.580Z,95952.56
2023-03-18T02:16:49.600Z,95959.06
2023-03-18T02:19:28.478Z,95953.97
2023-03-18T02:22:03.711Z,95956.44
2023-03-18T02:24:39.898Z,95960.59
2023-03-18T02:27:18.443Z,95963.44
2023-03-18T02:29:47.260Z,95962.63
2023-03-18T02:32:16.638Z,95961.81
2023-03-18T02:34:46.093Z,95964.97
2023-03-18T02:37:14.477Z,95959.69
2023-03-18T02:39:42.722Z,95965.94
2023-03-18T02:42:13.099Z,95962.91
2023-03-18T02:44:45.266Z,95963.50
2023-03-18T02:47:15.778Z,95970.06
2023-03-18T02:49:44.686Z,95973.97
2023-03-18T02:52:13.172Z,95972.69
2023-03-18T02:54:42.058Z,95977.94
2023-03-18T02:57:10.519Z,95976.66
2023-03-18T02:59:38.822Z,95988.72
2023-03-18T03:02:08.592Z,95991.75
2023-03-18T03:04:36.960Z,95986.84
2023-03-18T03:07:05.266Z,95985.56
2023-03-18T03:09:33.568Z,95990.69
2023-03-18T03:12:02.433Z,95996.78
2023-03-18T03:14:30.842Z,95992.34
2023-03-18T03:16:59.127Z,95992.88
2023-03-18T03:19:29.068Z,95997.53
2023-03-18T03:21:57.358Z,95997.75
2023-03-18T03:24:25.828Z,96001.44
2023-03-18T03:26:54.250Z,96006.25
2023-03-18T03:29:22.706Z,96002.94
2023-03-18T03:31:51.110Z,96017.59
2023-03-18T03:34:19.576Z,96014.66
2023-03-18T03:36:49.968Z,96012.84
2023-03-18T03:39:19.084Z,96009.41
2023-03-18T03:41:47.298Z,96008.41
2023-03-18T03:44:15.611Z,96009.50
2023-03-18T03:46:43.926Z,96014.59
2023-03-18T03:49:12.272Z,96016.25
2023-03-18T03:51:40.551Z,96018.88
2023-03-18T03:54:10.218Z,96017.22
2023-03-18T03:56:38.579Z,96018.56
2023-03-18T03:59:07.017Z,96017.41
2023-03-18T04:01:36.485Z,96022.66
2023-03-18T04:04:05.505Z,96027.53
2023-03-18T04:06:34.535Z,96028.59
2023-03-18T04:09:03.619Z,96028.53
2023-03-18T04:11:33.824Z,96029.34
2023-03-18T04:14:02.417Z,96028.84
2023-03-18T04:16:30.846Z,96030.41
2023-03-18T04:18:59.186Z,96023.84
2023-03-18T04:21:27.489Z,96039.66
2023-03-18T04:23:56.595Z,96028.22
2023-03-18T04:26:24.925Z,96032.50
2023-03-18T04:28:54.586Z,96039.28
2023-03-18T04:31:22.935Z,96038.31
2023-03-18T04:33:51.227Z,96040.66
2023-03-18T04:36:19.510Z,96032.75
2023-03-18T04:38:47.780Z,96028.97
2023-03-18T04:41:16.044Z,96034.09
2023-03-18T04:43:44.782Z,96033.78
2023-03-18T04:46:15.049Z,96026.94
2023-03-18T04:48:43.472Z,96025.88
2023-03-18T04:51:12.592Z,96024.28
2023-03-18T04:53:40.947Z,96029.38
2023-03-18T04:56:09.830Z,96044.50
2023-03-18T04:58:38.114Z,96040.41
2023-03-18T05:01:06.717Z,96033.31
2023-03-18T05:03:36.484Z,96025.97
2023-03-18T05:06:05.187Z,96022.31
2023-03-18T05:08:33.569Z,96029.09
2023-03-18T05:11:02.141Z,96022.03
2023-03-18T05:13:30.402Z,96029.09
2023-03-18T05:15:59.148Z,96029.63
2023-03-18T05:18:27.523Z,96030.75
2023-03-18T05:20:57.177Z,96024.88
2023-03-18T05:23:25.611Z,96036.75
2023-03-18T05:25:53.910Z,96032.91
2023-03-18T05:28:22.465Z,96028.03
2023-03-18T05:30:50.729Z,96033.13
2023-03-18T05:33:22.082Z,96031.47
2023-03-18T05:35:51.703Z,96035.28
2023-03-18T05:38:21.390Z,96033.19
2023-03-18T05:40:49.943Z,96034.22
2023-03-18T05:43:18.376Z,96034.75
2023-03-18T05:45:46.836Z,96032.13
2023-03-18T05:48:15.432Z,96033.06
2023-03-18T05:50:44.285Z,96049.19
2023-03-18T05:53:13.261Z,96032.56
2023-03-18T05:55:43.400Z,96038.13
2023-03-18T05:58:12.638Z,96035.84
2023-03-18T06:00:41.659Z,96043.56
2023-03-18T06:03:10.264Z,96046.03
2023-03-18T06:05:38.607Z,96045.00
2023-03-18T06:08:07.293Z,96047.28
2023-03-18T06:10:35.755Z,96051.59
2023-03-18T06:13:05.957Z,96060.69
2023-03-18T06:15:34.413Z,96055.59
2023-03-18T06:18:02.741Z,96054.50
2023-03-18T06:20:31.004Z,96055.59
2023-03-18T06:22:59.884Z,96063.06
2023-03-18T06:25:29.001Z,96045.94
2023-03-18T06:27:57.350Z,96049.09
2023-03-18T06:30:26.922Z,96049.28
2023-03-18T06:32:55.243Z,96050.66
2023-03-18T06:35:26.552Z,96050.16
2023-03-18T06:37:55.301Z,96052.06
2023-03-18T06:40:23.969Z,96052.06
2023-03-18T06:42:52.318Z,96053.72
2023-03-18T06:45:21.311Z,96054.88
2023-03-18T06:47:50.989Z,96052.25
2023-03-18T06:50:20.677Z,96057.34
2023-03-18T06:52:49.451Z,96051.59
2023-03-18T06:55:18.044Z,96053.72
2023-03-18T06:57:46.612Z,96054.00
2023-03-18T07:00:16.075Z,96047.34
2023-03-18T07:02:45.805Z,96053.59
2023-03-18T07:05:15.522Z,96057.22
2023-03-18T07:07:44.431Z,96068.09
2023-03-18T07:10:20.323Z,96059.19
2023-03-18T07:12:49.026Z,96068.28
2023-03-18T07:15:17.895Z,96053.84
2023-03-18T07:17:46.622Z,96050.09
2023-03-18T07:20:16.608Z,96048.00
2023-03-18T07:22:46.887Z,96053.78
2023-03-18T07:25:15.593Z,96054.66
2023-03-18T07:27:43.888Z,96056.97
2023-03-18T07:30:13.729Z,96066.41
2023-03-18T07:32:42.082Z,96056.34
2023-03-18T07:35:14.117Z,96056.38
2023-03-18T07:37:43.803Z,96058.69
2023-03-18T07:40:13.253Z,96065.00
2023-03-18T07:42:41.574Z,96063.25
2023-03-18T07:45:10.900Z,96067.16
2023-03-18T07:47:39.832Z,96071.03
2023-03-18T07:50:09.120Z,96063.78
2023-03-18T07:52:37.531Z,96071.50
2023-03-18T07:55:09.161Z,96065.03
2023-03-18T07:57:37.969Z,96063.47
2023-03-18T08:00:07.388Z,96062.31
2023-03-18T08:02:36.199Z,96070.03
2023-03-18T08:05:06.847Z,96062.72
2023-03-18T08:07:35.797Z,96065.50
2023-03-18T08:10:04.374Z,96066.56
2023-03-18T08:12:49.474Z,96066.50
2023-03-18T08:15:20.810Z,96072.50
2023-03-18T08:17:49.177Z,96071.94
2023-03-18T08:20:17.532Z,96065.19
2023-03-18T08:22:45.979Z,96067.69
2023-03-18T08:25:14.327Z,96067.88
2023-03-18T08:27:44.065Z,96066.59
2023-03-18T08:30:13.804Z,96067.00
2023-03-18T08:32:42.278Z,96067.38
2023-03-18T08:35:11.586Z,96068.41
2023-03-18T08:37:40.135Z,96065.50
2023-03-18T08:40:09.938Z,96069.81
2023-03-18T08:42:38.226Z,96065.88
2023-03-18T08:45:09.725Z,96064.84
2023-03-18T08:47:38.068Z,96059.47
2023-03-18T08:50:07.109Z,96058.97
2023-03-18T08:52:35.440Z,96065.91
2023-03-18T08:55:03.745Z,96066.50
2023-03-18T08:57:32.037Z,96056.56
2023-03-18T09:00:00.568Z,96058.13
2023-03-18T09:02:30.220Z,96063.00
2023-03-18T09:04:58.701Z,96052.78
2023-03-18T09:07:27.109Z,96059.28
2023-03-18T09:09:55.402Z,96063.34
2023-03-18T09:12:24.591Z,96055.81
2023-03-18T09:14:52.852Z,96059.00
2023-03-18T09:17:22.346Z,96051.38
2023-03-18T09:19:54.823Z,96056.38
2023-03-18T09:22:23.991Z,96067.41
2023-03-18T09:24:52.589Z,96067.72
2023-03-18T09:27:20.871Z,96068.16
2023-03-18T09:29:49.630Z,96067.84
2023-03-18T09:32:17.882Z,96057.22
2023-03-18T09:34:46.502Z,96065.34
2023-03-18T09:37:16.425Z,96067.59
2023-03-18T09:39:44.737Z,96064.84
2023-03-18T09:42:23.351Z,96066.88
2023-03-18T09:44:56.147Z,96067.25
2023-03-18T09:47:43.904Z,96062.78
2023-03-18T09:50:22.472Z,96062.16
2023-03-18T09:52:58.267Z,96062.72
2023-03-18T09:55:30.320Z,96064.09
2023-03-18T09:58:03.132Z,96054.09
2023-03-18T10:00:34.180Z,96057.72
2023-03-18T10:03:06.443Z,96064.59
2023-03-18T10:05:38.158Z,96063.53
2023-03-18T10:08:10.530Z,96066.66
2023-03-18T10:10:40.198Z,96072.59
2023-03-18T10:13:14.495Z,96071.03
2023-03-18T10:15:45.605Z,96060.38
2023-03-18T10:18:17.020Z,96070.28
2023-03-18T10:20:54.454Z,96065.78
2023-03-18T10:23:31.866Z,96065.75
2023-03-18T10:26:02.993Z,96066.25
2023-03-18T10:28:49.251Z,96062.25
2023-03-18T10:31:26.411Z,96067.47
2023-03-18T10:33:59.075Z,96069.03
2023-03-18T10:36:33.713Z,96066.06
2023-03-18T10:39:03.880Z,96055.19
2023-03-18T10:41:34.207Z,96048.06
2023-03-18T10:44:04.563Z,96051.34
2023-03-18T10:46:33.841Z,96045.47
2023-03-18T10:49:08.466Z,96047.34
2023-03-18T10:51:42.647Z,96047.63
2023-03-18T10:54:15.288Z,96046.34
2023-03-18T10:56:44.014Z,96041.88
2023-03-18T10:59:18.074Z,96033.00
2023-03-18T11:01:49.885Z,96035.44
2023-03-18T11:04:21.554Z,96039.81
2023-03-18T11:06:53.302Z,96030.66
2023-03-18T11:09:24.652Z,96019.25
2023-03-18T11:11:57.967Z,96020.91
2023-03-18T11:14:30.605Z,96017.47
2023-03-18T11:17:00.208Z,96017.38
2023-03-18T11:19:32.307Z,96010.19
2023-03-18T11:22:05.580Z,96008.03
2023-03-18T11:24:39.679Z,96006.34
2023-03-18T11:27:23.980Z,95999.00
2023-03-18T11:29:56.533Z,95994.03
2023-03-18T11:32:27.730Z,95995.78
2023-03-18T11:34:58.225Z,95996.03
2023-03-18T11:37:30.809Z,95991.13
2023-03-18T11:40:18.454Z,95989.88
2023-03-18T11:42:48.716Z,95988.91
2023-03-18T11:45:32.170Z,95982.63
2023-03-18T11:48:00.747Z,95976.41
2023-03-18T11:50:40.561Z,95978.41
2023-03-18T11:53:13.418Z,95966.59
2023-03-18T11:55:46.764Z,95966.13
2023-03-18T11:58:33.065Z,95964.59
2023-03-18T12:01:06.792Z,95955.19
2023-03-18T12:03:52.483Z,95956.84
2023-03-18T12:06:22.437Z,95953.00
2023-03-18T12:08:58.856Z,95945.06
2023-03-18T12:11:43.112Z,95940.22
2023-03-18T12:14:15.931Z,95939.25
2023-03-18T12:16:52.262Z,95950.44
2023-03-18T12:19:34.105Z,95929.66
2023-03-18T12:22:15.417Z,95931.47
2023-03-18T12:25:00.049Z,95934.66
2023-03-18T12:27:38.590Z,95934.50
2023-03-18T12:30:32.660Z,95936.00
2023-03-18T12:33:04.781Z,95928.78
2023-03-18T12:35:47.750Z,95933.09
2023-03-18T12:38:43.900Z,95935.63
2023-03-18T12:41:17.538Z,95927.47
2023-03-18T12:43:53.470Z,95930.19
2023-03-18T12:46:28.829Z,95938.22
2023-03-18T12:49:00.465Z,95930.72
2023-03-18T12:51:32.158Z,95930.78
2023-03-18T12:54:10.336Z,95924.19
2023-03-18T12:56:44.456Z,95926.00
2023-03-18T12:59:19.654Z,95922.38
2023-03-18T13:01:50.702Z,95928.84
2023-03-18T13:04:22.323Z,95925.75
2023-03-18T13:06:55.646Z,95923.69
2023-03-18T13:09:26.733Z,95927.47
2023-03-18T13:12:05.198Z,95930.13
2023-03-18T13:14:45.863Z,95929.84
2023-03-18T13:17:16.622Z,95920.72
2023-03-18T13:19:45.145Z,95928.06
2023-03-18T13:22:26.468Z,95925.78
2023-03-18T13:25:03.866Z,95929.28
2023-03-18T13:27:45.654Z,95917.00
2023-03-18T13:30:23.848Z,95924.94
2023-03-18T13:33:30.670Z,95918.78
2023-03-18T13:36:10.435Z,95914.81
2023-03-18T13:39:04.668Z,95916.16
2023-03-18T13:42:14.687Z,95908.94
2023-03-18T13:44:45.208Z,95910.75
2023-03-18T13:47:18.960Z,95914.81
2023-03-18T13:49:47.725Z,95903.09
2023-03-18T13:52:27.833Z,95891.81
2023-03-18T13:55:00.946Z,95898.25
2023-03-18T13:57:55.357Z,95891.28
2023-03-18T14:00:33.328Z,95900.41
2023-03-18T14:03:07.700Z,95899.66
2023-03-18T14:05:40.366Z,95892.31
2023-03-18T14:08:37.125Z,95898.19
2023-03-18T14:11:50.403Z,95889.09
2023-03-18T14:14:55.439Z,95890.91
2023-03-18T14:17:33.735Z,95887.03
2023-03-18T14:20:20.421Z,95881.56
2023-03-18T14:22:50.399Z,95882.88
2023-03-18T14:25:43.464Z,95881.75
2023-03-18T14:28:26.524Z,95883.22
2023-03-18T14:31:16.575Z,95875.97
2023-03-18T14:34:19.618Z,95870.56
2023-03-18T14:37:16.170Z,95867.72
2023-03-18T14:39:46.294Z,95859.13
2023-03-18T14:42:24.554Z,95857.31
2023-03-18T14:44:55.743Z,95857.22
2023-03-18T14:47:38.169Z,95861.94
2023-03-18T14:50:15.294Z,95864.06
2023-03-18T14:52:47.984Z,95852.28
2023-03-18T14:55:19.477Z,95859.88
2023-03-18T14:57:47.951Z,95861.78
2023-03-18T15:00:17.922Z,95856.50
2023-03-18T15:02:46.915Z,95865.75
2023-03-18T15:05:18.411Z,95850.34
2023-03-18T15:07:52.752Z,95845.25
2023-03-18T15:10:24.530Z,95848.94
2023-03-18T15:13:00.851Z,95854.13
2023-03-18T15:15:29.265Z,95843.22
2023-03-18T15:17:57.582Z,95840.38
2023-03-18T15:20:27.209Z,95846.06
2023-03-18T15:22:56.804Z,95845.56
2023-03-18T15:25:25.080Z,95844.88
2023-03-18T15:27:55.184Z,95845.28
2023-03-18T15:30:28.506Z,95842.28
2023-03-18T15:33:04.569Z,95837.06
2023-03-18T15:35:33.189Z,95842.53
2023-03-18T15:38:08.352Z,95840.00
2023-03-18T15:40:38.061Z,95829.72
2023-03-18T15:43:16.859Z,95832.09
2023-03-18T15:45:47.492Z,95840.31
2023-03-18T15:48:23.916Z,95841.03
2023-03-18T15:50:54.064Z,95844.19
2023-03-18T15:53:25.661Z,95848.13
2023-03-18T15:55:55.501Z,95840.41
2023-03-18T15:58:26.903Z,95837.63
2023-03-18T16:00:56.381Z,95844.81
2023-03-18T16:03:26.211Z,95851.41
2023-03-18T16:05:55.234Z,95851.69
2023-03-18T16:08:24.837Z,95852.78
2023-03-18T16:10:56.531Z,95853.34
2023-03-18T16:13:26.989Z,95845.84
2023-03-18T16:15:55.000Z,95844.75
2023-03-18T16:18:23.860Z,95845.81
2023-03-18T16:20:52.923Z,95852.09
2023-03-18T16:23:21.534Z,95858.16
2023-03-18T16:25:52.889Z,95854.59
2023-03-18T16:28:23.049Z,95862.63
2023-03-18T16:30:53.329Z,95865.66
2023-03-18T16:33:21.930Z,95856.88
2023-03-18T16:35:53.825Z,95860.84
2023-03-18T16:38:22.127Z,95857.41
2023-03-18T16:40:54.303Z,95858.19
2023-03-18T16:43:24.282Z,95862.03
2023-03-18T16:45:52.671Z,95861.38
2023-03-18T16:48:22.324Z,95852.63
2023-03-18T16:50:52.485Z,95864.97
2023-03-18T16:53:23.389Z,95860.00
2023-03-18T16:55:54.967Z,95865.22
2023-03-18T16:58:25.574Z,95877.09
2023-03-18T17:00:53.955Z,95879.88
2023-03-18T17:03:22.290Z,95884.22
2023-03-18T17:05:52.015Z,95886.47
2023-03-18T17:08:21.725Z,95890.03
2023-03-18T17:10:52.279Z,95892.16
2023-03-18T17:13:23.331Z,95892.91
2023-03-18T17:15:51.868Z,95886.84
2023-03-18T17:18:21.605Z,95887.06
2023-03-18T17:20:50.024Z,95895.50
2023-03-18T17:23:20.437Z,95895.03
2023-03-18T17:25:51.796Z,95895.84
2023-03-18T17:28:29.862Z,95901.00
2023-03-18T17:30:58.161Z,95904.50
2023-03-18T17:33:29.068Z,95905.78
2023-03-18T17:35:58.024Z,95899.53
2023-03-18T17:38:26.447Z,95909.28
2023-03-18T17:40:55.458Z,95910.19
2023-03-18T17:43:28.613Z,95919.63
2023-03-18T17:45:57.779Z,95916.78
2023-03-18T17:48:27.642Z,95920.91
2023-03-18T17:50:57.873Z,95918.34
2023-03-18T17:53:29.157Z,95910.63
2023-03-18T17:55:58.057Z,95914.63
2023-03-18T17:58:29.908Z,95902.34
2023-03-18T18:01:03.437Z,95893.56
2023-03-18T18:03:32.818Z,95896.00
2023-03-18T18:06:01.389Z,95900.72
2023-03-18T18:08:31.594Z,95901.44
2023-03-18T18:11:13.184Z,95898.09
2023-03-18T18:13:43.176Z,95900.72
2023-03-18T18:16:12.206Z,95905.03
2023-03-18T18:18:40.472Z,95896.97
2023-03-18T18:21:14.693Z,95914.63
2023-03-18T18:23:44.859Z,95911.66
2023-03-18T18:26:15.165Z,95911.56
2023-03-18T18:28:47.294Z,95906.69
2023-03-18T18:31:18.061Z,95908.81
2023-03-18T18:33:47.045Z,95910.47
2023-03-18T18:36:15.761Z,95906.97
2023-03-18T18:38:44.292Z,95913.78
2023-03-18T18:41:12.683Z,95912.16
2023-03-18T18:43:40.926Z,95913.19
2023-03-18T18:46:14.874Z,95907.84
2023-03-18T18:48:45.333Z,95913.41
2023-03-18T18:51:17.152Z,95905.81
2023-03-18T18:53:46.349Z,95910.34
2023-03-18T18:56:18.558Z,95914.63
2023-03-18T18:58:47.233Z,95916.69
2023-03-18T19:01:17.086Z,95912.56
2023-03-18T19:03:46.052Z,95916.22
2023-03-18T19:06:25.576Z,95917.84
2023-03-18T19:08:55.130Z,95923.38
2023-03-18T19:11:24.660Z,95920.88
2023-03-18T19:13:55.031Z,95916.56
2023-03-18T19:16:29.702Z,95923.50
2023-03-18T19:19:00.609Z,95925.16
2023-03-18T19:21:28.929Z,95917.94
2023-03-18T19:23:58.140Z,95910.72
2023-03-18T19:26:27.147Z,95918.91
2023-03-18T19:28:59.445Z,95924.50
2023-03-18T19:31:32.285Z,95923.47
2023-03-18T19:34:02.184Z,95928.13
2023-03-18T19:36:31.914Z,95928.69
2023-03-18T19:39:01.674Z,95931.72
2023-03-18T19:41:30.563Z,95934.72
2023-03-18T19:44:04.106Z,95929.53
2023-03-18T19:46:38.598Z,95926.41
2023-03-18T19:49:13.091Z,95928.81
2023-03-18T19:51:41.560Z,95934.53
2023-03-18T19:54:22.442Z,95936.75
2023-03-18T19:56:51.241Z,95936.16
2023-03-18T19:59:21.902Z,95942.50
2023-03-18T20:01:52.105Z,95943.28
2023-03-18T20:04:21.547Z,95950.19
2023-03-18T20:06:50.543Z,95946.44
2023-03-18T20:09:18.808Z,95953.75
2023-03-18T20:11:48.013Z,95940.38
2023-03-18T20:14:23.402Z,95947.66
2023-03-18T20:16:54.621Z,95951.50
2023-03-18T20:19:22.969Z,95958.38
2023-03-18T20:21:51.302Z,95951.00
2023-03-18T20:24:24.724Z,95941.75
2023-03-18T20:26:53.002Z,95957.44
2023-03-18T20:29:24.030Z,95955.53
2023-03-18T20:31:53.796Z,95954.81
2023-03-18T20:34:23.124Z,95956.38
2023-03-18T20:36:51.786Z,95954.88
2023-03-18T20:39:21.856Z,95959.91
2023-03-18T20:41:50.546Z,95961.66
2023-03-18T20:44:18.816Z,95966.25
2023-03-18T20:46:47.071Z,95962.50
2023-03-18T20:49:16.673Z,95966.09
2023-03-18T20:51:45.670Z,95957.84
2023-03-18T20:54:18.855Z,95961.16
2023-03-18T20:56:47.712Z,95959.03
2023-03-18T20:59:16.095Z,95960.97
2023-03-18T21:01:44.441Z,95959.25
2023-03-18T21:04:13.886Z,95947.53
2023-03-18T21:06:44.410Z,95954.22
2023-03-18T21:09:13.924Z,95955.59
2023-03-18T21:11:42.181Z,95954.28
2023-03-18T21:14:15.504Z,95947.91
2023-03-18T21:16:43.804Z,95946.63
2023-03-18T21:19:12.667Z,95951.47
2023-03-18T21:21:41.237Z,95950.63
2023-03-18T21:24:24.673Z,95948.53
2023-03-18T21:27:03.782Z,95948.59
2023-03-18T21:29:33.411Z,95948.66
2023-03-18T21:32:02.688Z,95948.38
2023-03-18T21:34:31.274Z,95961.34
2023-03-18T21:36:59.672Z,95959.03
2023-03-18T21:39:29.892Z,95964.53
2023-03-18T21:41:58.496Z,95966.38
2023-03-18T21:44:26.787Z,95958.22
2023-03-18T21:46:55.170Z,95966.84
2023-03-18T21:49:23.424Z,95965.00
2023-03-18T21:51:51.765Z,95964.00
2023-03-18T21:54:20.895Z,95964.84
2023-03-18T21:56:50.630Z,95967.50
2023-03-18T21:59:18.956Z,95957.06
2023-03-18T22:01:47.280Z,95959.69
2023-03-18T22:04:15.641Z,95957.41
2023-03-18T22:06:43.978Z,95944.50
2023-03-18T22:09:12.224Z,95936.91
2023-03-18T22:11:40.665Z,95947.03
2023-03-18T22:14:11.974Z,95953.72
2023-03-18T22:16:40.256Z,95949.13
2023-03-18T22:19:08.626Z,95950.03
2023-03-18T22:21:36.891Z,95949.09
2023-03-18T22:24:05.759Z,95955.41
2023-03-18T22:26:34.066Z,95957.38
2023-03-18T22:29:02.312Z,95939.84
2023-03-18T22:31:32.512Z,95949.78
2023-03-18T22:34:00.961Z,95938.91
2023-03-18T22:36:29.643Z,95949.03
2023-03-18T22:38:57.889Z,95940.28
2023-03-18T22:41:29.313Z,95951.84
2023-03-18T22:44:00.070Z,95947.56
2023-03-18T22:46:28.749Z,95956.50
2023-03-18T22:48:58.530Z,95950.56
2023-03-18T22:51:29.355Z,95947.28
2023-03-18T22:53:57.674Z,95949.47
2023-03-18T22:56:26.183Z,95943.66
2023-03-18T22:58:54.399Z,95946.50
2023-03-18T23:01:27.788Z,95950.75
2023-03-18T23:03:56.144Z,95954.03
2023-03-18T23:06:27.211Z,95952.31
2023-03-18T23:08:55.832Z,95961.28
2023-03-18T23:11:24.224Z,95960.88
2023-03-18T23:13:53.274Z,95964.63
2023-03-18T23:16:23.612Z,95965.53
2023-03-18T23:18:52.098Z,95959.34
2023-03-18T23:21:22.044Z,95949.91
2023-03-18T23:23:52.438Z,95963.09
2023-03-18T23:26:21.579Z,95963.28
2023-03-18T23:28:50.092Z,95966.94
2023-03-18T23:31:18.558Z,95965.44
2023-03-18T23:33:47.214Z,95967.09
2023-03-18T23:36:15.721Z,95963.44
2023-03-18T23:38:44.184Z,95957.78
2023-03-18T23:41:13.895Z,95958.09
2023-03-18T23:43:42.116Z,95959.56
2023-03-18T23:46:10.424Z,95953.09
2023-03-18T23:48:38.714Z,95954.91
2023-03-18T23:51:07.159Z,95961.84
2023-03-18T23:53:35.487Z,95967.09
2023-03-18T23:56:03.938Z,95968.81
2023-03-18T23:58:33.720Z,95975.94
